createdAt,value
2023-04-21T00:01:19.749Z,100.00
2023-04-21T00:04:01.340Z,100.00
2023-04-21T00:06:28.701Z,100.00
2023-04-21T00:08:57.100Z,100.00
2023-04-21T00:11:23.977Z,100.00
2023-04-21T00:13:50.428Z,100.00
2023-04-21T00:16:16.987Z,100.00
2023-04-21T00:18:43.383Z,100.00
2023-04-21T00:21:09.806Z,100.00
2023-04-21T00:23:36.235Z,100.00
2023-04-21T00:26:03.071Z,100.00
2023-04-21T00:28:29.884Z,100.00
2023-04-21T00:30:56.604Z,100.00
2023-04-21T00:33:23.077Z,100.00
2023-04-21T00:35:49.490Z,100.00
2023-04-21T00:38:15.922Z,100.00
2023-04-21T00:40:42.333Z,100.00
2023-04-21T00:43:08.861Z,100.00
2023-04-21T00:45:36.067Z,100.00
2023-04-21T00:48:04.491Z,100.00
2023-04-21T00:50:31.133Z,100.00
2023-04-21T00:53:05.517Z,100.00
2023-04-21T00:55:32.021Z,100.00
2023-04-21T00:57:58.414Z,100.00
2023-04-21T01:00:24.826Z,100.00
2023-04-21T01:02:51.345Z,100.00
2023-04-21T01:05:23.608Z,100.00
2023-04-21T01:07:50.470Z,100.00
2023-04-21T01:10:16.896Z,100.00
2023-04-21T01:12:46.685Z,100.00
2023-04-21T01:15:13.771Z,100.00
2023-04-21T01:17:40.305Z,100.00
2023-04-21T01:20:15.051Z,100.00
2023-04-21T01:22:42.323Z,100.00
2023-04-21T01:25:10.167Z,100.00
2023-04-21T01:27:37.116Z,100.00
2023-04-21T01:30:04.209Z,100.00
2023-04-21T01:32:31.476Z,100.00
2023-04-21T01:34:58.918Z,100.00
2023-04-21T01:37:27.040Z,100.00
2023-04-21T01:39:55.590Z,100.00
2023-04-21T01:42:25.241Z,100.00
2023-04-21T01:44:53.688Z,100.00
2023-04-21T01:47:20.714Z,100.00
2023-04-21T01:49:47.128Z,100.00
2023-04-21T01:52:13.565Z,100.00
2023-04-21T01:54:40.968Z,100.00
2023-04-21T01:57:07.529Z,100.00
2023-04-21T01:59:35.209Z,100.00
2023-04-21T02:02:02.317Z,100.00
2023-04-21T02:04:28.987Z,100.00
2023-04-21T02:06:55.518Z,100.00
2023-04-21T02:09:22.100Z,100.00
2023-04-21T02:11:49.099Z,100.00
2023-04-21T02:14:15.557Z,100.00
2023-04-21T02:16:42.448Z,100.00
2023-04-21T02:19:08.902Z,100.00
2023-04-21T02:21:35.451Z,100.00
2023-04-21T02:24:01.824Z,100.00
2023-04-21T02:26:28.239Z,100.00
2023-04-21T02:28:54.657Z,100.00
2023-04-21T02:31:21.080Z,100.00
2023-04-21T02:33:47.618Z,100.00
2023-04-21T02:36:14.125Z,100.00
2023-04-21T02:38:40.600Z,100.00
2023-04-21T02:41:07.467Z,100.00
2023-04-21T02:43:34.884Z,100.00
2023-04-21T02:46:08.892Z,100.00
2023-04-21T02:48:35.884Z,100.00
2023-04-21T02:51:02.579Z,100.00
2023-04-21T02:53:29.079Z,100.00
2023-04-21T02:55:56.338Z,100.00
2023-04-21T02:58:23.440Z,100.00
2023-04-21T03:00:49.878Z,100.00
2023-04-21T03:03:18.521Z,100.00
2023-04-21T03:05:45.226Z,100.00
2023-04-21T03:08:11.665Z,100.00
2023-04-21T03:10:38.362Z,100.00
2023-04-21T03:13:04.842Z,100.00
2023-04-21T03:15:31.237Z,100.00
2023-04-21T03:17:57.712Z,100.00
2023-04-21T03:20:30.256Z,100.00
2023-04-21T03:22:56.684Z,100.00
2023-04-21T03:25:27.465Z,100.00
2023-04-21T03:27:54.318Z,100.00
2023-04-21T03:30:21.233Z,100.00
2023-04-21T03:32:47.650Z,100.00
2023-04-21T03:35:16.409Z,100.00
2023-04-21T03:37:42.799Z,100.00
2023-04-21T03:40:09.531Z,100.00
2023-04-21T03:42:36.117Z,100.00
2023-04-21T03:45:03.333Z,100.00
2023-04-21T03:47:30.075Z,100.00
2023-04-21T03:49:56.482Z,100.00
2023-04-21T03:52:23.238Z,100.00
2023-04-21T03:54:49.714Z,100.00
2023-04-21T03:57:16.691Z,100.00
2023-04-21T03:59:43.304Z,100.00
2023-04-21T04:02:09.897Z,100.00
2023-04-21T04:04:37.690Z,100.00
2023-04-21T04:07:04.995Z,100.00
2023-04-21T04:09:31.433Z,100.00
2023-04-21T04:12:04.118Z,100.00
2023-04-21T04:14:30.500Z,100.00
2023-04-21T04:16:58.312Z,100.00
2023-04-21T04:19:29.687Z,100.00
2023-04-21T04:21:57.786Z,100.00
2023-04-21T04:24:24.593Z,100.00
2023-04-21T04:26:51.279Z,100.00
2023-04-21T04:29:22.371Z,100.00
2023-04-21T04:31:50.375Z,100.00
2023-04-21T04:34:23.133Z,100.00
2023-04-21T04:36:50.312Z,100.00
2023-04-21T04:39:17.875Z,100.00
2023-04-21T04:41:44.497Z,100.00
2023-04-21T04:44:11.367Z,100.00
2023-04-21T04:46:39.249Z,100.00
2023-04-21T04:49:05.728Z,100.00
2023-04-21T04:51:32.641Z,100.00
2023-04-21T04:53:59.134Z,100.00
2023-04-21T04:56:25.609Z,100.00
2023-04-21T04:58:52.069Z,100.00
2023-04-21T05:01:18.525Z,100.00
2023-04-21T05:03:45.887Z,100.00
2023-04-21T05:06:14.008Z,100.00
2023-04-21T05:08:41.583Z,100.00
2023-04-21T05:11:08.085Z,100.00
2023-04-21T05:13:34.509Z,100.00
2023-04-21T05:16:16.961Z,100.00
2023-04-21T05:18:43.513Z,100.00
2023-04-21T05:21:09.995Z,100.00
2023-04-21T05:23:36.413Z,100.00
2023-04-21T05:26:04.396Z,100.00
2023-04-21T05:28:33.107Z,100.00
2023-04-21T05:30:59.557Z,100.00
2023-04-21T05:33:34.833Z,100.00
2023-04-21T05:36:01.281Z,100.00
2023-04-21T05:38:34.913Z,100.00
2023-04-21T05:41:01.309Z,100.00
2023-04-21T05:43:34.243Z,100.00
2023-04-21T05:46:01.336Z,100.00
2023-04-21T05:48:28.761Z,100.00
2023-04-21T05:50:55.751Z,100.00
2023-04-21T05:53:23.654Z,100.00
2023-04-21T05:55:50.264Z,100.00
2023-04-21T05:58:18.228Z,100.00
2023-04-21T06:00:47.940Z,100.00
2023-04-21T06:03:15.731Z,100.00
2023-04-21T06:05:43.429Z,100.00
2023-04-21T06:08:09.854Z,100.00
2023-04-21T06:10:36.259Z,100.00
2023-04-21T06:13:02.938Z,96.87
2023-04-21T06:15:29.399Z,90.37
2023-04-21T06:17:55.851Z,85.65
2023-04-21T06:20:22.263Z,82.55
2023-04-21T06:22:48.710Z,78.50
2023-04-21T06:25:15.212Z,79.11
2023-04-21T06:27:42.677Z,74.59
2023-04-21T06:30:09.200Z,72.46
2023-04-21T06:32:36.663Z,69.37
2023-04-21T06:35:03.228Z,68.11
2023-04-21T06:37:29.647Z,67.77
2023-04-21T06:39:56.095Z,69.78
2023-04-21T06:42:23.575Z,69.14
2023-04-21T06:44:50.917Z,68.06
2023-04-21T06:47:17.603Z,67.70
2023-04-21T06:49:44.091Z,66.50
2023-04-21T06:52:11.571Z,66.57
2023-04-21T06:54:38.377Z,67.05
2023-04-21T06:57:04.767Z,65.18
2023-04-21T06:59:31.246Z,65.14
2023-04-21T07:01:57.703Z,65.61
2023-04-21T07:04:24.216Z,64.30
2023-04-21T07:06:50.797Z,64.02
2023-04-21T07:09:17.361Z,63.96
2023-04-21T07:11:43.885Z,61.75
2023-04-21T07:14:11.050Z,61.92
2023-04-21T07:16:37.490Z,60.42
2023-04-21T07:19:03.930Z,60.36
2023-04-21T07:21:36.076Z,60.46
2023-04-21T07:24:02.862Z,60.08
2023-04-21T07:26:29.451Z,59.92
2023-04-21T07:28:58.472Z,58.87
2023-04-21T07:31:28.081Z,59.39
2023-04-21T07:33:54.490Z,58.54
2023-04-21T07:36:20.998Z,58.34
2023-04-21T07:38:48.453Z,57.85
2023-04-21T07:41:14.879Z,57.72
2023-04-21T07:43:41.592Z,57.97
2023-04-21T07:46:13.437Z,58.20
2023-04-21T07:48:40.293Z,57.89
2023-04-21T07:51:07.001Z,57.60
2023-04-21T07:53:33.441Z,57.11
2023-04-21T07:55:59.855Z,57.05
2023-04-21T07:58:26.314Z,57.00
2023-04-21T08:00:52.769Z,56.75
2023-04-21T08:03:21.437Z,55.34
2023-04-21T08:05:49.489Z,53.94
2023-04-21T08:08:20.294Z,55.31
2023-04-21T08:10:53.416Z,55.13
2023-04-21T08:13:21.526Z,54.60
2023-04-21T08:15:48.977Z,54.59
2023-04-21T08:18:17.841Z,53.30
2023-04-21T08:20:45.554Z,53.60
2023-04-21T08:23:12.123Z,52.71
2023-04-21T08:25:38.585Z,52.27
2023-04-21T08:28:05.013Z,52.54
2023-04-21T08:30:31.523Z,52.22
2023-04-21T08:32:58.059Z,51.83
2023-04-21T08:35:24.695Z,52.37
2023-04-21T08:37:52.258Z,53.65
2023-04-21T08:40:19.873Z,51.39
2023-04-21T08:42:46.754Z,51.46
2023-04-21T08:45:13.170Z,51.03
2023-04-21T08:47:41.140Z,52.62
2023-04-21T08:50:11.817Z,52.53
2023-04-21T08:52:38.580Z,52.67
2023-04-21T08:55:07.442Z,50.76
2023-04-21T08:57:34.119Z,50.89
2023-04-21T09:00:00.667Z,49.50
2023-04-21T09:02:27.260Z,50.56
2023-04-21T09:04:56.112Z,50.22
2023-04-21T09:07:36.907Z,50.25
2023-04-21T09:10:04.485Z,49.94
2023-04-21T09:12:31.020Z,49.63
2023-04-21T09:15:01.150Z,50.04
2023-04-21T09:17:36.859Z,49.24
2023-04-21T09:20:17.358Z,49.89
2023-04-21T09:22:43.928Z,50.88
2023-04-21T09:25:15.891Z,48.93
2023-04-21T09:27:42.424Z,48.25
2023-04-21T09:30:12.097Z,48.11
2023-04-21T09:32:39.884Z,48.06
2023-04-21T09:35:10.290Z,49.13
2023-04-21T09:37:37.175Z,47.37
2023-04-21T09:40:05.420Z,48.88
2023-04-21T09:42:32.814Z,48.13
2023-04-21T09:45:14.065Z,48.72
2023-04-21T09:47:50.453Z,48.16
2023-04-21T09:50:22.935Z,48.85
2023-04-21T09:53:02.931Z,49.29
2023-04-21T09:55:29.597Z,48.93
2023-04-21T09:57:58.082Z,48.75
2023-04-21T10:00:25.884Z,48.22
2023-04-21T10:02:53.351Z,48.28
2023-04-21T10:05:20.019Z,47.69
2023-04-21T10:07:47.710Z,49.46
2023-04-21T10:10:24.239Z,49.01
2023-04-21T10:12:51.690Z,48.18
2023-04-21T10:15:30.959Z,49.73
2023-04-21T10:18:16.253Z,47.39
2023-04-21T10:20:52.544Z,46.29
2023-04-21T10:23:27.921Z,47.06
2023-04-21T10:26:19.305Z,47.31
2023-04-21T10:28:45.795Z,45.53
2023-04-21T10:31:23.121Z,47.45
2023-04-21T10:34:08.960Z,46.73
2023-04-21T10:36:37.372Z,47.41
2023-04-21T10:39:04.462Z,46.48
2023-04-21T10:41:34.308Z,46.61
2023-04-21T10:44:01.721Z,46.91
2023-04-21T10:46:31.852Z,47.94
2023-04-21T10:49:18.622Z,48.64
2023-04-21T10:52:05.607Z,47.45
2023-04-21T10:54:53.790Z,46.13
2023-04-21T10:57:20.674Z,47.45
2023-04-21T10:59:47.907Z,46.21
2023-04-21T11:02:16.696Z,46.70
2023-04-21T11:04:52.513Z,45.02
2023-04-21T11:07:19.937Z,45.69
2023-04-21T11:09:47.650Z,45.21
2023-04-21T11:12:15.416Z,47.50
2023-04-21T11:14:44.167Z,47.88
2023-04-21T11:17:11.522Z,46.46
2023-04-21T11:19:38.292Z,47.00
2023-04-21T11:22:05.152Z,47.98
2023-04-21T11:24:32.882Z,45.76
2023-04-21T11:27:01.181Z,47.86
2023-04-21T11:29:29.289Z,46.35
2023-04-21T11:31:56.022Z,44.37
2023-04-21T11:34:25.200Z,45.64
2023-04-21T11:36:53.277Z,44.43
2023-04-21T11:39:25.841Z,46.16
2023-04-21T11:41:53.425Z,46.43
2023-04-21T11:44:42.168Z,44.53
2023-04-21T11:47:18.453Z,44.90
2023-04-21T11:49:52.350Z,43.40
2023-04-21T11:52:37.405Z,43.71
2023-04-21T11:55:12.290Z,44.44
2023-04-21T11:57:39.909Z,42.77
2023-04-21T12:00:06.801Z,42.92
2023-04-21T12:02:33.928Z,42.66
2023-04-21T12:05:03.930Z,43.33
2023-04-21T12:07:35.099Z,43.83
2023-04-21T12:10:02.904Z,43.20
2023-04-21T12:12:34.055Z,43.84
2023-04-21T12:15:04.586Z,45.51
2023-04-21T12:17:39.980Z,44.92
2023-04-21T12:20:07.399Z,45.26
2023-04-21T12:22:34.125Z,45.79
2023-04-21T12:25:00.657Z,46.13
2023-04-21T12:27:27.597Z,47.45
2023-04-21T12:29:54.264Z,46.95
2023-04-21T12:32:22.968Z,46.59
2023-04-21T12:34:52.432Z,47.91
2023-04-21T12:37:19.161Z,46.26
2023-04-21T12:39:45.824Z,47.82
2023-04-21T12:42:19.052Z,46.72
2023-04-21T12:44:45.608Z,46.71
2023-04-21T12:47:12.000Z,47.09
2023-04-21T12:49:38.437Z,45.75
2023-04-21T12:52:06.146Z,45.25
2023-04-21T12:54:32.805Z,45.08
2023-04-21T12:56:59.292Z,44.68
2023-04-21T12:59:28.009Z,43.71
2023-04-21T13:01:54.943Z,44.86
2023-04-21T13:04:23.766Z,45.19
2023-04-21T13:06:50.447Z,45.34
2023-04-21T13:09:17.088Z,45.48
2023-04-21T13:11:43.526Z,45.53
2023-04-21T13:14:10.656Z,45.65
2023-04-21T13:16:37.227Z,43.57
2023-04-21T13:19:04.870Z,40.25
2023-04-21T13:21:32.745Z,40.42
2023-04-21T13:23:59.185Z,41.11
2023-04-21T13:26:25.916Z,42.56
2023-04-21T13:28:52.346Z,43.08
2023-04-21T13:31:18.938Z,43.58
2023-04-21T13:33:45.398Z,44.36
2023-04-21T13:36:13.196Z,43.92
2023-04-21T13:38:41.094Z,43.94
2023-04-21T13:41:07.995Z,43.76
2023-04-21T13:43:34.695Z,43.33
2023-04-21T13:46:01.340Z,43.71
2023-04-21T13:48:29.993Z,43.16
2023-04-21T13:50:56.589Z,44.51
2023-04-21T13:53:25.095Z,42.64
2023-04-21T13:55:52.888Z,42.91
2023-04-21T13:58:19.338Z,43.17
2023-04-21T14:00:45.815Z,43.09
2023-04-21T14:03:12.565Z,43.66
2023-04-21T14:05:40.371Z,43.84
2023-04-21T14:08:07.595Z,45.84
2023-04-21T14:10:34.121Z,45.17
2023-04-21T14:13:02.693Z,44.94
2023-04-21T14:15:29.233Z,44.84
2023-04-21T14:18:02.646Z,44.64
2023-04-21T14:20:29.474Z,45.50
2023-04-21T14:22:55.986Z,45.00
2023-04-21T14:25:22.429Z,44.03
2023-04-21T14:27:48.846Z,44.65
2023-04-21T14:30:15.556Z,45.21
2023-04-21T14:32:45.520Z,45.04
2023-04-21T14:35:12.861Z,44.62
2023-04-21T14:37:39.922Z,44.41
2023-04-21T14:40:08.280Z,45.37
2023-04-21T14:42:34.814Z,46.17
2023-04-21T14:45:01.397Z,46.45
2023-04-21T14:47:28.993Z,46.45
2023-04-21T14:50:02.522Z,46.67
2023-04-21T14:52:28.962Z,45.90
2023-04-21T14:54:55.475Z,46.21
2023-04-21T14:57:25.105Z,47.29
2023-04-21T14:59:52.194Z,46.62
2023-04-21T15:02:19.592Z,45.12
2023-04-21T15:04:47.360Z,45.29
2023-04-21T15:07:14.006Z,45.49
2023-04-21T15:09:43.054Z,45.71
2023-04-21T15:12:09.688Z,46.37
2023-04-21T15:14:36.174Z,44.98
2023-04-21T15:17:04.638Z,46.14
2023-04-21T15:19:31.238Z,45.59
2023-04-21T15:21:57.904Z,46.29
2023-04-21T15:24:24.578Z,45.20
2023-04-21T15:26:51.016Z,46.29
2023-04-21T15:29:17.442Z,46.96
2023-04-21T15:31:43.926Z,46.84
2023-04-21T15:34:10.628Z,46.53
2023-04-21T15:36:37.115Z,46.40
2023-04-21T15:39:04.081Z,45.39
2023-04-21T15:41:31.589Z,46.16
2023-04-21T15:43:58.510Z,46.46
2023-04-21T15:46:25.033Z,46.94
2023-04-21T15:48:52.580Z,47.00
2023-04-21T15:51:19.275Z,46.69
2023-04-21T15:53:47.886Z,46.86
2023-04-21T15:56:15.093Z,47.52
2023-04-21T15:58:44.674Z,46.41
2023-04-21T16:01:11.292Z,46.04
2023-04-21T16:03:38.023Z,47.05
2023-04-21T16:06:04.770Z,46.46
2023-04-21T16:08:33.326Z,47.18
2023-04-21T16:11:00.340Z,46.47
2023-04-21T16:13:27.149Z,45.58
2023-04-21T16:15:53.683Z,47.19
2023-04-21T16:18:20.346Z,45.83
2023-04-21T16:20:48.044Z,45.67
2023-04-21T16:23:15.194Z,46.04
2023-04-21T16:25:42.137Z,46.30
2023-04-21T16:28:09.441Z,47.51
2023-04-21T16:30:36.003Z,47.05
2023-04-21T16:33:03.069Z,46.70
2023-04-21T16:35:29.686Z,46.74
2023-04-21T16:37:56.314Z,46.34
2023-04-21T16:40:24.407Z,47.04
2023-04-21T16:42:54.290Z,45.19
2023-04-21T16:45:20.922Z,45.75
2023-04-21T16:47:47.434Z,46.15
2023-04-21T16:50:14.053Z,46.09
2023-04-21T16:52:40.655Z,45.94
2023-04-21T16:55:07.432Z,45.51
2023-04-21T16:57:34.209Z,45.69
2023-04-21T17:00:02.197Z,45.67
2023-04-21T17:02:28.741Z,45.48
2023-04-21T17:04:56.191Z,46.08
2023-04-21T17:07:22.624Z,46.08
2023-04-21T17:09:52.263Z,46.68
2023-04-21T17:12:18.759Z,46.60
2023-04-21T17:14:45.292Z,47.34
2023-04-21T17:17:11.750Z,47.40
2023-04-21T17:19:38.246Z,47.54
2023-04-21T17:22:04.722Z,47.55
2023-04-21T17:24:44.814Z,46.95
2023-04-21T17:27:18.058Z,47.69
2023-04-21T17:29:51.208Z,47.32
2023-04-21T17:32:17.927Z,47.35
2023-04-21T17:34:44.431Z,48.57
2023-04-21T17:37:10.843Z,47.50
2023-04-21T17:39:37.579Z,46.94
2023-04-21T17:42:04.963Z,47.39
2023-04-21T17:44:31.470Z,47.36
2023-04-21T17:47:02.111Z,47.69
2023-04-21T17:49:28.602Z,48.45
2023-04-21T17:51:55.063Z,48.29
2023-04-21T17:54:26.114Z,48.80
2023-04-21T17:56:52.552Z,48.14
2023-04-21T17:59:19.291Z,48.16
2023-04-21T18:01:45.830Z,48.74
2023-04-21T18:04:16.885Z,48.49
2023-04-21T18:06:43.513Z,47.46
2023-04-21T18:09:15.823Z,48.75
2023-04-21T18:11:42.457Z,48.00
2023-04-21T18:14:10.263Z,48.25
2023-04-21T18:16:36.832Z,48.25
2023-04-21T18:19:05.332Z,49.01
2023-04-21T18:21:32.417Z,48.83
2023-04-21T18:24:06.029Z,48.90
2023-04-21T18:26:32.675Z,49.78
2023-04-21T18:28:59.119Z,50.68
2023-04-21T18:31:26.373Z,49.80
2023-04-21T18:33:57.081Z,50.43
2023-04-21T18:36:23.596Z,50.42
2023-04-21T18:38:52.010Z,50.86
2023-04-21T18:41:18.753Z,50.71
2023-04-21T18:43:54.420Z,51.74
2023-04-21T18:46:20.922Z,51.34
2023-04-21T18:48:47.361Z,51.47
2023-04-21T18:51:13.796Z,52.01
2023-04-21T18:53:42.471Z,52.02
2023-04-21T18:56:08.905Z,52.35
2023-04-21T18:58:35.465Z,52.89
2023-04-21T19:01:01.979Z,52.72
2023-04-21T19:03:28.597Z,52.97
2023-04-21T19:05:55.108Z,53.11
2023-04-21T19:08:30.443Z,53.59
2023-04-21T19:11:07.855Z,54.29
2023-04-21T19:13:34.297Z,54.46
2023-04-21T19:16:01.824Z,54.42
2023-04-21T19:18:28.297Z,54.73
2023-04-21T19:20:54.726Z,54.68
2023-04-21T19:23:21.161Z,55.40
2023-04-21T19:25:54.580Z,55.20
2023-04-21T19:28:21.623Z,55.09
2023-04-21T19:30:54.239Z,56.14
2023-04-21T19:33:20.795Z,55.59
2023-04-21T19:35:47.278Z,56.16
2023-04-21T19:38:13.771Z,56.11
2023-04-21T19:40:42.237Z,56.20
2023-04-21T19:43:09.121Z,56.13
2023-04-21T19:45:36.037Z,56.23
2023-04-21T19:48:02.521Z,55.85
2023-04-21T19:50:29.055Z,56.44
2023-04-21T19:52:55.829Z,56.08
2023-04-21T19:55:22.819Z,55.95
2023-04-21T19:57:49.333Z,56.71
2023-04-21T20:00:16.346Z,56.27
2023-04-21T20:02:42.979Z,57.04
2023-04-21T20:05:10.229Z,56.85
2023-04-21T20:07:37.981Z,57.37
2023-04-21T20:10:06.036Z,56.92
2023-04-21T20:12:32.726Z,57.15
2023-04-21T20:15:01.366Z,57.56
2023-04-21T20:17:28.399Z,58.23
2023-04-21T20:19:55.616Z,58.02
2023-04-21T20:22:26.053Z,57.88
2023-04-21T20:24:54.179Z,58.02
2023-04-21T20:27:20.743Z,58.33
2023-04-21T20:29:47.620Z,58.67
2023-04-21T20:32:15.425Z,59.10
2023-04-21T20:34:42.273Z,59.04
2023-04-21T20:37:10.745Z,58.79
2023-04-21T20:39:38.532Z,59.02
2023-04-21T20:42:13.423Z,59.12
2023-04-21T20:44:42.313Z,60.17
2023-04-21T20:47:09.779Z,61.21
2023-04-21T20:49:36.403Z,61.59
2023-04-21T20:52:10.320Z,62.00
2023-04-21T20:54:38.308Z,61.47
2023-04-21T20:57:07.434Z,62.91
2023-04-21T20:59:34.176Z,61.69
2023-04-21T21:02:00.704Z,62.84
2023-04-21T21:04:27.261Z,64.58
2023-04-21T21:06:53.834Z,64.02
2023-04-21T21:09:25.372Z,65.21
2023-04-21T21:11:51.825Z,65.92
2023-04-21T21:14:22.361Z,68.61
2023-04-21T21:16:48.949Z,67.87
2023-04-21T21:19:15.581Z,70.49
2023-04-21T21:21:42.012Z,71.39
2023-04-21T21:24:08.465Z,72.04
2023-04-21T21:26:34.865Z,70.90
2023-04-21T21:29:01.345Z,73.27
2023-04-21T21:31:27.792Z,73.97
2023-04-21T21:33:55.080Z,73.93
2023-04-21T21:36:21.488Z,74.64
2023-04-21T21:38:47.934Z,74.71
2023-04-21T21:41:14.825Z,74.41
2023-04-21T21:43:41.297Z,75.12
2023-04-21T21:46:08.509Z,74.46
2023-04-21T21:48:38.036Z,74.90
2023-04-21T21:51:05.764Z,75.30
2023-04-21T21:53:32.775Z,76.10
2023-04-21T21:55:59.974Z,76.48
2023-04-21T21:58:26.667Z,77.00
2023-04-21T22:00:53.078Z,77.84
2023-04-21T22:03:20.167Z,78.09
2023-04-21T22:05:47.412Z,77.93
2023-04-21T22:08:15.709Z,76.92
2023-04-21T22:10:42.784Z,76.50
2023-04-21T22:13:12.307Z,75.93
2023-04-21T22:15:38.942Z,75.47
2023-04-21T22:18:05.618Z,75.21
2023-04-21T22:20:32.218Z,76.22
2023-04-21T22:22:59.279Z,76.92
2023-04-21T22:25:27.170Z,77.08
2023-04-21T22:27:57.786Z,76.92
2023-04-21T22:30:24.692Z,76.33
2023-04-21T22:32:52.217Z,77.37
2023-04-21T22:35:18.675Z,76.16
2023-04-21T22:37:45.164Z,77.42
2023-04-21T22:40:12.060Z,78.26
2023-04-21T22:42:38.572Z,78.04
2023-04-21T22:45:05.512Z,78.59
2023-04-21T22:47:32.877Z,78.20
2023-04-21T22:50:02.510Z,80.41
2023-04-21T22:52:28.925Z,80.43
2023-04-21T22:54:57.415Z,81.87
2023-04-21T22:57:23.957Z,81.78
2023-04-21T22:59:53.361Z,81.70
2023-04-21T23:02:19.966Z,80.75
2023-04-21T23:04:47.471Z,81.26
2023-04-21T23:07:13.997Z,80.64
2023-04-21T23:09:40.752Z,81.04
2023-04-21T23:12:08.183Z,81.39
2023-04-21T23:14:36.585Z,80.98
2023-04-21T23:17:03.153Z,81.50
2023-04-21T23:19:29.641Z,81.98
2023-04-21T23:21:56.064Z,81.93
2023-04-21T23:24:23.322Z,84.44
2023-04-21T23:26:49.766Z,83.36
2023-04-21T23:29:17.539Z,85.85
2023-04-21T23:31:44.009Z,88.42
2023-04-21T23:34:15.562Z,88.57
2023-04-21T23:36:41.999Z,86.93
2023-04-21T23:39:14.237Z,86.83
2023-04-21T23:41:40.639Z,87.01
2023-04-21T23:44:08.219Z,87.10
2023-04-21T23:46:34.717Z,86.75
2023-04-21T23:49:01.194Z,86.63
2023-04-21T23:51:28.257Z,85.31
2023-04-21T23:53:54.831Z,84.91
2023-04-21T23:56:21.300Z,86.18
2023-04-21T23:58:47.763Z,87.04
